createdAt,value
2018-11-22T00:00:21.955Z,28.80
2018-11-22T00:01:21.920Z,27.90
2018-11-22T00:02:21.883Z,30.50
2018-11-22T00:03:21.847Z,28.40
2018-11-22T00:04:21.811Z,28.60
2018-11-22T00:05:21.776Z,30.00
2018-11-22T00:06:21.740Z,28.20
2018-11-22T00:07:21.704Z,28.80
2018-11-22T00:08:21.668Z,29.40
2018-11-22T00:09:21.633Z,28.70
2018-11-22T00:10:21.595Z,30.50
2018-11-22T00:11:21.561Z,29.00
2018-11-22T00:12:21.524Z,28.90
2018-11-22T00:13:21.490Z,29.80
2018-11-22T00:14:21.456Z,29.40
2018-11-22T00:15:21.418Z,29.30
2018-11-22T00:16:21.383Z,29.20
2018-11-22T00:17:21.346Z,29.20
2018-11-22T00:18:21.310Z,30.90
2018-11-22T00:19:21.275Z,30.00
2018-11-22T00:20:21.238Z,31.90
2018-11-22T00:21:21.203Z,29.80
2018-11-22T00:22:21.167Z,30.60
2018-11-22T00:23:21.130Z,30.90
2018-11-22T00:24:21.096Z,31.50
2018-11-22T00:25:21.063Z,30.80
2018-11-22T00:26:21.023Z,31.00
2018-11-22T00:27:20.989Z,31.10
2018-11-22T00:28:20.953Z,30.30
2018-11-22T00:29:20.917Z,31.40
2018-11-22T00:30:20.881Z,29.50
2018-11-22T00:31:20.845Z,32.00
2018-11-22T00:32:20.810Z,31.00
2018-11-22T00:33:20.781Z,31.90
2018-11-22T00:34:20.738Z,29.80
2018-11-22T00:35:20.702Z,31.20
2018-11-22T00:36:20.665Z,32.30
2018-11-22T00:37:20.630Z,32.70
2018-11-22T00:38:20.598Z,32.60
2018-11-22T00:39:20.563Z,31.10
2018-11-22T00:40:20.524Z,31.60
2018-11-22T00:41:20.491Z,33.00
2018-11-22T00:42:20.451Z,34.10
2018-11-22T00:43:20.420Z,35.10
2018-11-22T00:44:20.380Z,34.90
2018-11-22T00:45:20.348Z,32.60
2018-11-22T00:46:20.309Z,33.60
2018-11-22T00:47:20.273Z,34.40
2018-11-22T00:48:20.236Z,32.80
2018-11-22T00:49:20.202Z,34.70
2018-11-22T00:50:20.165Z,34.10
2018-11-22T00:51:20.129Z,33.20
2018-11-22T00:52:20.093Z,33.10
2018-11-22T00:53:20.058Z,34.10
2018-11-22T00:54:20.021Z,35.10
2018-11-22T00:55:19.986Z,34.30
2018-11-22T00:56:19.951Z,34.40
2018-11-22T00:57:19.914Z,33.10
2018-11-22T00:58:19.879Z,35.00
2018-11-22T00:59:19.843Z,33.70
2018-11-22T01:00:19.810Z,30.50
2018-11-22T01:01:19.770Z,34.80
2018-11-22T01:02:19.734Z,34.10
2018-11-22T01:03:19.699Z,34.60
2018-11-22T01:04:19.666Z,33.90
2018-11-22T01:05:19.627Z,32.40
2018-11-22T01:06:19.594Z,35.70
2018-11-22T01:07:19.557Z,34.40
2018-11-22T01:08:19.520Z,35.50
2018-11-22T01:09:19.484Z,34.50
2018-11-22T01:10:19.448Z,34.60
2018-11-22T01:11:19.412Z,35.40
2018-11-22T01:12:19.376Z,35.00
2018-11-22T01:13:19.342Z,35.50
2018-11-22T01:14:19.306Z,34.10
2018-11-22T01:15:19.273Z,35.70
2018-11-22T01:16:19.233Z,36.00
2018-11-22T01:17:19.239Z,34.50
2018-11-22T01:18:19.162Z,34.10
2018-11-22T01:19:19.126Z,35.40
2018-11-22T01:20:19.098Z,33.90
2018-11-22T01:21:19.055Z,34.70
2018-11-22T01:22:19.022Z,35.10
2018-11-22T01:23:18.984Z,35.10
2018-11-22T01:24:18.947Z,36.40
2018-11-22T01:25:18.911Z,34.30
2018-11-22T01:26:18.875Z,35.10
2018-11-22T01:27:18.838Z,36.30
2018-11-22T01:28:18.804Z,36.00
2018-11-22T01:29:18.772Z,35.40
2018-11-22T01:30:18.732Z,35.60
2018-11-22T01:31:18.697Z,35.50
2018-11-22T01:32:18.661Z,36.60
2018-11-22T01:33:18.626Z,35.30
2018-11-22T01:34:18.590Z,37.20
2018-11-22T01:35:18.553Z,35.60
2018-11-22T01:36:18.549Z,35.60
2018-11-22T01:37:18.481Z,36.60
2018-11-22T01:38:18.446Z,35.60
2018-11-22T01:39:18.409Z,36.30
2018-11-22T01:40:18.375Z,36.70
2018-11-22T01:41:18.341Z,36.30
2018-11-22T01:42:18.302Z,35.90
2018-11-22T01:43:18.267Z,36.90
2018-11-22T01:44:18.231Z,37.80
2018-11-22T01:45:18.196Z,35.20
2018-11-22T01:46:18.159Z,35.80
2018-11-22T01:47:18.124Z,36.70
2018-11-22T01:48:18.089Z,34.50
2018-11-22T01:49:18.052Z,35.40
2018-11-22T01:50:18.017Z,37.40
2018-11-22T01:51:17.981Z,36.80
2018-11-22T01:52:17.946Z,37.40
2018-11-22T01:53:17.910Z,37.30
2018-11-22T01:54:17.874Z,36.70
2018-11-22T01:55:17.838Z,36.30
2018-11-22T01:56:17.803Z,36.30
2018-11-22T01:57:17.766Z,37.10
2018-11-22T01:58:17.730Z,37.30
2018-11-22T01:59:17.696Z,37.20
2018-11-22T02:00:17.660Z,36.90
2018-11-22T02:01:17.626Z,36.70
2018-11-22T02:02:17.590Z,37.50
2018-11-22T02:03:17.551Z,37.40
2018-11-22T02:04:17.520Z,39.20
2018-11-22T02:05:17.483Z,36.20
2018-11-22T02:06:17.445Z,38.60
2018-11-22T02:07:17.409Z,38.40
2018-11-22T02:08:17.373Z,36.80
2018-11-22T02:09:17.338Z,35.20
2018-11-22T02:10:17.301Z,36.00
2018-11-22T02:11:17.267Z,36.80
2018-11-22T02:12:17.233Z,38.50
2018-11-22T02:13:17.196Z,36.80
2018-11-22T02:14:17.158Z,37.00
2018-11-22T02:15:17.124Z,36.80
2018-11-22T02:16:17.089Z,37.80
2018-11-22T02:17:17.052Z,38.80
2018-11-22T02:18:17.015Z,35.80
2018-11-22T02:19:16.981Z,36.70
2018-11-22T02:20:16.946Z,39.40
2018-11-22T02:21:16.908Z,35.80
2018-11-22T02:22:16.874Z,35.30
2018-11-22T02:23:16.838Z,37.10
2018-11-22T02:24:16.801Z,35.00
2018-11-22T02:25:16.767Z,37.60
2018-11-22T02:26:16.731Z,37.30
2018-11-22T02:27:16.695Z,38.90
2018-11-22T02:28:16.661Z,36.30
2018-11-22T02:29:16.625Z,38.10
2018-11-22T02:30:16.593Z,37.00
2018-11-22T02:31:16.552Z,37.30
2018-11-22T02:32:16.518Z,37.40
2018-11-22T02:33:16.486Z,37.80
2018-11-22T02:34:16.444Z,35.40
2018-11-22T02:35:16.410Z,36.70
2018-11-22T02:36:16.375Z,38.10
2018-11-22T02:37:16.340Z,37.00
2018-11-22T02:38:16.303Z,37.20
2018-11-22T02:39:16.268Z,37.70
2018-11-22T02:40:16.233Z,34.70
2018-11-22T02:41:16.198Z,36.00
2018-11-22T02:42:16.161Z,35.90
2018-11-22T02:43:16.125Z,36.00
2018-11-22T02:44:16.092Z,35.50
2018-11-22T02:45:16.054Z,37.10
2018-11-22T02:46:16.022Z,36.20
2018-11-22T02:47:15.983Z,35.60
2018-11-22T02:48:15.947Z,37.00
2018-11-22T02:49:15.911Z,38.00
2018-11-22T02:50:15.876Z,37.30
2018-11-22T02:51:15.839Z,35.60
2018-11-22T02:52:15.804Z,35.30
2018-11-22T02:53:15.774Z,36.90
2018-11-22T02:54:15.733Z,37.00
2018-11-22T02:55:15.698Z,36.40
2018-11-22T02:56:15.663Z,35.50
2018-11-22T02:57:15.626Z,36.40
2018-11-22T02:58:15.589Z,37.70
2018-11-22T02:59:15.557Z,35.50
2018-11-22T03:00:15.520Z,37.10
2018-11-22T03:01:15.484Z,36.70
2018-11-22T03:02:15.446Z,36.30
2018-11-22T03:03:15.411Z,35.20
2018-11-22T03:04:15.377Z,36.50
2018-11-22T03:05:15.341Z,36.90
2018-11-22T03:06:15.305Z,37.20
2018-11-22T03:07:15.268Z,36.80
2018-11-22T03:08:15.234Z,35.50
2018-11-22T03:09:15.199Z,35.60
2018-11-22T03:10:15.172Z,36.00
2018-11-22T03:11:15.127Z,37.10
2018-11-22T03:12:15.092Z,37.70
2018-11-22T03:13:15.057Z,35.90
2018-11-22T03:14:15.020Z,36.20
2018-11-22T03:15:14.985Z,36.70
2018-11-22T03:16:14.950Z,36.00
2018-11-22T03:17:14.914Z,36.90
2018-11-22T03:18:14.878Z,34.40
2018-11-22T03:19:14.842Z,35.70
2018-11-22T03:20:14.807Z,35.70
2018-11-22T03:21:14.770Z,35.50
2018-11-22T03:22:14.734Z,37.70
2018-11-22T03:23:14.699Z,36.50
2018-11-22T03:24:14.665Z,36.70
2018-11-22T03:25:14.629Z,36.90
2018-11-22T03:26:14.593Z,35.30
2018-11-22T03:27:14.557Z,34.40
2018-11-22T03:28:14.521Z,36.50
2018-11-22T03:29:14.487Z,36.40
2018-11-22T03:30:14.453Z,35.70
2018-11-22T03:31:14.415Z,36.60
2018-11-22T03:32:14.380Z,36.20
2018-11-22T03:33:14.344Z,36.80
2018-11-22T03:34:14.313Z,35.80
2018-11-22T03:35:14.272Z,36.70
2018-11-22T03:36:14.237Z,36.70
2018-11-22T03:37:14.202Z,36.60
2018-11-22T03:38:14.165Z,34.80
2018-11-22T03:39:14.128Z,36.80
2018-11-22T03:40:14.095Z,34.90
2018-11-22T03:41:14.060Z,35.10
2018-11-22T03:42:14.023Z,36.20
2018-11-22T03:43:13.987Z,35.60
2018-11-22T03:44:13.952Z,34.90
2018-11-22T03:45:13.915Z,35.60
2018-11-22T03:46:13.882Z,36.50
2018-11-22T03:47:13.845Z,35.60
2018-11-22T03:48:13.813Z,35.30
2018-11-22T03:49:13.774Z,36.60
2018-11-22T03:50:13.737Z,35.50
2018-11-22T03:51:13.707Z,36.80
2018-11-22T03:52:13.667Z,35.00
2018-11-22T03:53:13.631Z,35.40
2018-11-22T03:54:13.595Z,35.60
2018-11-22T03:55:13.559Z,35.30
2018-11-22T03:56:13.523Z,36.70
2018-11-22T03:57:13.489Z,33.90
2018-11-22T03:58:13.453Z,35.10
2018-11-22T03:59:13.418Z,36.40
2018-11-22T04:00:13.384Z,36.20
2018-11-22T04:01:13.347Z,37.20
2018-11-22T04:02:13.309Z,34.80
2018-11-22T04:03:13.273Z,35.20
2018-11-22T04:04:13.238Z,36.20
2018-11-22T04:05:13.204Z,34.10
2018-11-22T04:06:13.167Z,36.40
2018-11-22T04:07:13.132Z,34.40
2018-11-22T04:08:13.097Z,33.90
2018-11-22T04:09:13.060Z,34.00
2018-11-22T04:10:13.025Z,35.70
2018-11-22T04:11:12.988Z,34.90
2018-11-22T04:12:12.953Z,34.40
2018-11-22T04:13:12.919Z,34.50
2018-11-22T04:14:12.891Z,35.40
2018-11-22T04:15:12.856Z,36.30
2018-11-22T04:16:12.810Z,35.00
2018-11-22T04:17:12.778Z,34.60
2018-11-22T04:18:12.741Z,35.20
2018-11-22T04:19:12.711Z,35.80
2018-11-22T04:20:12.667Z,36.30
2018-11-22T04:21:12.634Z,34.30
2018-11-22T04:22:12.599Z,33.70
2018-11-22T04:23:12.561Z,34.50
2018-11-22T04:24:12.527Z,34.70
2018-11-22T04:25:12.491Z,34.20
2018-11-22T04:26:12.454Z,33.20
2018-11-22T04:27:12.418Z,35.70
2018-11-22T04:28:12.384Z,34.20
2018-11-22T04:29:12.349Z,33.80
2018-11-22T04:30:12.312Z,32.40
2018-11-22T04:31:12.276Z,35.00
2018-11-22T04:32:12.241Z,33.30
2018-11-22T04:33:12.204Z,33.80
2018-11-22T04:34:12.170Z,35.10
2018-11-22T04:35:12.135Z,33.70
2018-11-22T04:36:12.099Z,33.40
2018-11-22T04:37:12.063Z,34.30
2018-11-22T04:38:12.027Z,35.50
2018-11-22T04:39:11.991Z,35.40
2018-11-22T04:40:11.955Z,34.30
2018-11-22T04:41:11.919Z,34.50
2018-11-22T04:42:11.882Z,33.00
2018-11-22T04:43:11.847Z,33.50
2018-11-22T04:44:11.812Z,34.60
2018-11-22T04:45:11.778Z,33.50
2018-11-22T04:46:11.740Z,35.80
2018-11-22T04:47:11.704Z,33.60
2018-11-22T04:48:11.671Z,33.20
2018-11-22T04:49:11.638Z,34.60
2018-11-22T04:50:11.598Z,33.20
2018-11-22T04:51:11.563Z,35.10
2018-11-22T04:52:11.527Z,36.40
2018-11-22T04:53:11.492Z,33.80
2018-11-22T04:54:11.455Z,35.20
2018-11-22T04:55:11.420Z,35.00
2018-11-22T04:56:11.388Z,34.60
2018-11-22T04:57:11.349Z,34.40
2018-11-22T04:58:11.314Z,34.10
2018-11-22T04:59:11.278Z,33.70
2018-11-22T05:00:11.243Z,34.20
2018-11-22T05:01:11.207Z,33.00
2018-11-22T05:02:11.171Z,32.50
2018-11-22T05:03:11.135Z,33.70
2018-11-22T05:04:11.099Z,32.80
2018-11-22T05:05:11.065Z,33.40
2018-11-22T05:06:11.028Z,34.40
2018-11-22T05:07:11.001Z,35.90
2018-11-22T05:08:10.957Z,33.50
2018-11-22T05:09:10.922Z,34.20
2018-11-22T05:10:10.887Z,34.50
2018-11-22T05:11:10.851Z,32.80
2018-11-22T05:12:10.815Z,33.70
2018-11-22T05:13:10.779Z,33.50
2018-11-22T05:14:10.743Z,33.60
2018-11-22T05:15:10.706Z,33.50
2018-11-22T05:16:10.673Z,34.40
2018-11-22T05:17:10.636Z,34.70
2018-11-22T05:18:10.599Z,33.70
2018-11-22T05:19:10.565Z,33.70
2018-11-22T05:20:10.530Z,34.80
2018-11-22T05:21:10.494Z,32.30
2018-11-22T05:22:10.456Z,33.80
2018-11-22T05:23:10.423Z,31.70
2018-11-22T05:24:10.386Z,34.60
2018-11-22T05:25:10.351Z,34.80
2018-11-22T05:26:10.315Z,33.90
2018-11-22T05:27:10.279Z,34.30
2018-11-22T05:28:10.251Z,33.50
2018-11-22T05:29:12.491Z,33.20
2018-11-22T05:30:10.174Z,34.00
2018-11-22T05:31:10.138Z,32.20
2018-11-22T05:32:10.103Z,32.90
2018-11-22T05:33:10.067Z,33.70
2018-11-22T05:34:10.033Z,32.90
2018-11-22T05:35:09.995Z,33.10
2018-11-22T05:36:09.960Z,34.20
2018-11-22T05:37:09.923Z,33.40
2018-11-22T05:38:09.887Z,34.90
2018-11-22T05:39:09.851Z,33.90
2018-11-22T05:40:09.816Z,33.60
2018-11-22T05:41:09.784Z,33.10
2018-11-22T05:42:09.745Z,32.90
2018-11-22T05:43:09.710Z,33.40
2018-11-22T05:44:09.674Z,34.90
2018-11-22T05:45:09.638Z,32.20
2018-11-22T05:46:09.602Z,32.00
2018-11-22T05:47:09.567Z,33.80
2018-11-22T05:48:09.532Z,34.20
2018-11-22T05:49:09.496Z,33.70
2018-11-22T05:50:09.461Z,34.00
2018-11-22T05:51:09.424Z,33.60
2018-11-22T05:52:09.389Z,33.90
2018-11-22T05:53:09.353Z,34.90
2018-11-22T05:54:09.317Z,34.30
2018-11-22T05:55:09.281Z,35.20
2018-11-22T05:56:09.247Z,32.10
2018-11-22T05:57:09.210Z,32.00
2018-11-22T05:58:09.175Z,33.00
2018-11-22T05:59:09.139Z,32.70
2018-11-22T06:00:09.103Z,32.20
2018-11-22T06:01:09.067Z,34.30
2018-11-22T06:02:09.031Z,34.10
2018-11-22T06:03:08.997Z,34.80
2018-11-22T06:04:08.960Z,32.90
2018-11-22T06:05:08.926Z,34.40
2018-11-22T06:06:08.888Z,33.70
2018-11-22T06:07:08.855Z,34.40
2018-11-22T06:08:08.819Z,32.60
2018-11-22T06:09:08.790Z,34.30
2018-11-22T06:10:08.749Z,32.30
2018-11-22T06:11:08.711Z,35.00
2018-11-22T06:12:08.676Z,34.30
2018-11-22T06:13:08.641Z,33.60
2018-11-22T06:14:08.608Z,33.90
2018-11-22T06:15:08.569Z,34.70
2018-11-22T06:16:08.534Z,34.20
2018-11-22T06:17:08.499Z,35.00
2018-11-22T06:18:08.464Z,33.90
2018-11-22T06:19:08.427Z,34.40
2018-11-22T06:20:08.390Z,33.60
2018-11-22T06:21:08.356Z,34.30
2018-11-22T06:22:08.321Z,34.00
2018-11-22T06:23:08.286Z,34.20
2018-11-22T06:24:08.248Z,34.10
2018-11-22T06:25:08.213Z,34.30
2018-11-22T06:26:08.178Z,34.20
2018-11-22T06:27:08.143Z,33.60
2018-11-22T06:28:08.108Z,35.30
2018-11-22T06:29:08.072Z,33.00
2018-11-22T06:30:08.035Z,32.50
2018-11-22T06:31:08.001Z,33.50
2018-11-22T06:32:07.965Z,33.20
2018-11-22T06:33:07.930Z,34.40
2018-11-22T06:34:07.892Z,33.50
2018-11-22T06:35:07.858Z,34.20
2018-11-22T06:36:07.822Z,32.80
2018-11-22T06:37:07.788Z,34.70
2018-11-22T06:38:07.754Z,34.10
2018-11-22T06:39:07.716Z,33.20
2018-11-22T06:40:07.681Z,34.30
2018-11-22T06:41:07.646Z,34.40
2018-11-22T06:42:07.610Z,33.50
2018-11-22T06:43:07.573Z,32.30
2018-11-22T06:44:07.537Z,33.90
2018-11-22T06:45:07.502Z,33.90
2018-11-22T06:46:07.466Z,34.80
2018-11-22T06:47:07.433Z,35.20
2018-11-22T06:48:07.399Z,34.10
2018-11-22T06:49:07.361Z,33.30
2018-11-22T06:50:07.325Z,33.90
2018-11-22T06:51:07.288Z,34.00
2018-11-22T06:52:07.254Z,36.00
2018-11-22T06:53:07.219Z,34.60
2018-11-22T06:54:07.185Z,35.10
2018-11-22T06:55:07.148Z,34.50
2018-11-22T06:56:07.111Z,35.20
2018-11-22T06:57:07.075Z,33.20
2018-11-22T06:58:07.041Z,33.50
2018-11-22T06:59:07.003Z,35.00
2018-11-22T07:00:06.978Z,33.60
2018-11-22T07:01:06.934Z,35.90
2018-11-22T07:02:06.898Z,33.70
2018-11-22T07:03:06.867Z,34.90
2018-11-22T07:04:06.827Z,34.30
2018-11-22T07:05:06.790Z,36.40
2018-11-22T07:06:06.754Z,34.60
2018-11-22T07:07:06.721Z,35.70
2018-11-22T07:08:06.685Z,35.90
2018-11-22T07:09:06.649Z,35.50
2018-11-22T07:10:06.612Z,34.80
2018-11-22T07:11:06.577Z,34.00
2018-11-22T07:12:06.543Z,34.60
2018-11-22T07:13:06.507Z,35.20
2018-11-22T07:14:06.470Z,36.40
2018-11-22T07:15:06.435Z,34.20
2018-11-22T07:16:06.400Z,33.80
2018-11-22T07:17:06.365Z,33.00
2018-11-22T07:18:06.328Z,35.40
2018-11-22T07:19:06.292Z,34.20
2018-11-22T07:20:06.257Z,34.90
2018-11-22T07:21:06.223Z,34.30
2018-11-22T07:22:06.184Z,35.00
2018-11-22T07:23:06.151Z,35.00
2018-11-22T07:24:06.115Z,34.80
2018-11-22T07:25:06.081Z,35.20
2018-11-22T07:26:06.044Z,34.90
2018-11-22T07:27:06.010Z,34.60
2018-11-22T07:28:05.973Z,35.00
2018-11-22T07:29:05.938Z,34.70
2018-11-22T07:30:05.902Z,36.00
2018-11-22T07:31:05.865Z,35.20
2018-11-22T07:32:05.831Z,35.50
2018-11-22T07:33:05.796Z,34.70
2018-11-22T07:34:05.762Z,35.30
2018-11-22T07:35:05.727Z,34.90
2018-11-22T07:36:05.688Z,36.30
2018-11-22T07:37:05.652Z,35.90
2018-11-22T07:38:05.615Z,36.10
2018-11-22T07:39:05.582Z,34.80
2018-11-22T07:40:05.545Z,35.90
2018-11-22T07:41:05.514Z,35.10
2018-11-22T07:42:05.473Z,35.60
2018-11-22T07:43:05.438Z,35.70
2018-11-22T07:44:06.349Z,36.30
2018-11-22T07:45:05.369Z,36.30
2018-11-22T07:46:05.332Z,34.40
2018-11-22T07:47:05.296Z,36.20
2018-11-22T07:48:05.260Z,36.30
2018-11-22T07:49:05.227Z,36.40
2018-11-22T07:50:05.189Z,37.00
2018-11-22T07:51:05.154Z,37.60
2018-11-22T07:52:05.118Z,34.10
2018-11-22T07:53:05.083Z,36.50
2018-11-22T07:54:05.048Z,37.00
2018-11-22T07:55:05.014Z,36.40
2018-11-22T07:56:04.979Z,35.70
2018-11-22T07:57:04.941Z,36.00
2018-11-22T07:58:04.905Z,34.90
2018-11-22T07:59:04.870Z,36.90
2018-11-22T08:00:04.835Z,37.60
2018-11-22T08:01:04.800Z,35.60
2018-11-22T08:02:04.802Z,35.70
2018-11-22T08:03:04.730Z,35.20
2018-11-22T08:04:04.693Z,35.00
2018-11-22T08:05:04.661Z,35.40
2018-11-22T08:06:04.622Z,36.00
2018-11-22T08:07:04.588Z,35.50
2018-11-22T08:08:04.552Z,34.40
2018-11-22T08:09:04.517Z,35.30
2018-11-22T08:10:04.479Z,35.00
2018-11-22T08:11:04.444Z,34.60
2018-11-22T08:12:04.409Z,35.60
2018-11-22T08:13:04.375Z,35.50
2018-11-22T08:14:04.339Z,36.00
2018-11-22T08:15:04.304Z,36.10
2018-11-22T08:16:04.268Z,34.70
2018-11-22T08:17:04.233Z,36.10
2018-11-22T08:18:04.198Z,34.30
2018-11-22T08:19:04.161Z,33.40
2018-11-22T08:20:04.128Z,34.00
2018-11-22T08:21:04.944Z,35.60
2018-11-22T08:22:04.058Z,35.30
2018-11-22T08:23:04.022Z,35.10
2018-11-22T08:24:03.985Z,34.90
2018-11-22T08:25:03.957Z,34.60
2018-11-22T08:26:03.919Z,34.90
2018-11-22T08:27:03.880Z,34.90
2018-11-22T08:28:03.848Z,35.40
2018-11-22T08:29:03.808Z,36.00
2018-11-22T08:30:03.771Z,34.00
2018-11-22T08:31:03.737Z,35.70
2018-11-22T08:32:03.700Z,34.70
2018-11-22T08:33:03.667Z,36.00
2018-11-22T08:34:03.629Z,35.20
2018-11-22T08:35:03.594Z,35.80
2018-11-22T08:36:03.565Z,34.90
2018-11-22T08:37:03.529Z,34.10
2018-11-22T08:38:03.489Z,37.40
2018-11-22T08:39:03.453Z,36.90
2018-11-22T08:40:03.418Z,36.60
2018-11-22T08:41:03.383Z,38.30
2018-11-22T08:42:03.348Z,37.90
2018-11-22T08:43:03.312Z,36.30
2018-11-22T08:44:03.277Z,35.90
2018-11-22T08:45:03.241Z,37.00
2018-11-22T08:46:03.211Z,36.50
2018-11-22T08:47:03.170Z,38.50
2018-11-22T08:48:03.135Z,41.00
2018-11-22T08:49:03.099Z,37.30
2018-11-22T08:50:03.063Z,37.50
2018-11-22T08:51:03.027Z,39.20
2018-11-22T08:52:03.012Z,37.70
2018-11-22T08:53:02.958Z,38.60
2018-11-22T08:54:02.922Z,35.70
2018-11-22T08:55:02.886Z,37.70
2018-11-22T08:56:02.852Z,40.00
2018-11-22T08:57:02.816Z,37.70
2018-11-22T08:58:02.780Z,37.40
2018-11-22T08:59:02.749Z,36.50
2018-11-22T09:00:02.712Z,37.50
2018-11-22T09:01:02.674Z,37.60
2018-11-22T09:02:02.637Z,37.70
2018-11-22T09:03:02.603Z,36.80
2018-11-22T09:04:02.569Z,37.10
2018-11-22T09:05:02.533Z,40.10
2018-11-22T09:06:02.497Z,35.70
2018-11-22T09:07:02.461Z,36.70
2018-11-22T09:08:02.427Z,37.20
2018-11-22T09:09:02.391Z,39.40
2018-11-22T09:10:02.649Z,37.60
2018-11-22T09:11:02.320Z,39.60
2018-11-22T09:12:02.284Z,36.70
2018-11-22T09:13:02.251Z,40.40
2018-11-22T09:14:02.212Z,38.20
2018-11-22T09:15:02.177Z,36.80
2018-11-22T09:16:02.147Z,39.10
2018-11-22T09:17:02.107Z,38.20
2018-11-22T09:18:02.071Z,37.40
2018-11-22T09:19:02.038Z,37.20
2018-11-22T09:20:02.008Z,37.10
2018-11-22T09:21:01.965Z,38.00
2018-11-22T09:22:01.930Z,38.20
2018-11-22T09:23:01.894Z,38.50
2018-11-22T09:24:01.867Z,39.10
2018-11-22T09:25:01.828Z,39.30
2018-11-22T09:26:01.788Z,38.10
2018-11-22T09:27:01.752Z,38.90
2018-11-22T09:28:01.718Z,36.40
2018-11-22T09:29:01.684Z,37.30
2018-11-22T09:30:01.647Z,38.90
2018-11-22T09:31:01.610Z,38.00
2018-11-22T09:32:01.575Z,38.30
2018-11-22T09:33:01.540Z,38.00
2018-11-22T09:34:01.504Z,39.20
2018-11-22T09:35:01.483Z,37.90
2018-11-22T09:36:01.433Z,38.20
2018-11-22T09:37:01.398Z,38.30
2018-11-22T09:38:01.362Z,39.10
2018-11-22T09:39:01.325Z,38.60
2018-11-22T09:40:01.292Z,37.80
2018-11-22T09:41:01.256Z,37.00
2018-11-22T09:42:01.222Z,39.60
2018-11-22T09:43:01.188Z,38.90
2018-11-22T09:44:01.150Z,39.60
2018-11-22T09:45:01.115Z,40.00
2018-11-22T09:46:01.078Z,38.40
2018-11-22T09:47:01.043Z,39.80
2018-11-22T09:48:01.007Z,40.20
2018-11-22T09:49:00.972Z,39.70
2018-11-22T09:50:00.935Z,36.60
2018-11-22T09:51:00.903Z,39.40
2018-11-22T09:52:00.867Z,36.20
2018-11-22T09:53:00.832Z,40.30
2018-11-22T09:54:00.795Z,41.00
2018-11-22T09:55:00.761Z,41.40
2018-11-22T09:56:00.726Z,40.40
2018-11-22T09:57:00.690Z,38.50
2018-11-22T09:58:00.654Z,40.20
2018-11-22T09:59:00.626Z,38.90
2018-11-22T10:00:00.584Z,38.70
2018-11-22T10:01:00.555Z,40.20
2018-11-22T10:02:00.513Z,40.00
2018-11-22T10:03:00.542Z,39.10
2018-11-22T10:04:00.442Z,39.30
2018-11-22T10:05:00.710Z,40.70
2018-11-22T10:06:00.371Z,42.00
2018-11-22T10:07:00.336Z,41.10
2018-11-22T10:08:00.302Z,40.10
2018-11-22T10:09:00.270Z,39.80
2018-11-22T10:10:00.231Z,40.80
2018-11-22T10:11:00.195Z,40.20
2018-11-22T10:12:00.160Z,39.60
2018-11-22T10:13:00.125Z,39.70
2018-11-22T10:14:00.089Z,38.50
2018-11-22T10:15:00.062Z,40.20
2018-11-22T10:16:00.028Z,39.10
2018-11-22T10:17:00.040Z,42.60
2018-11-22T10:17:59.947Z,38.90
2018-11-22T10:18:59.912Z,40.20
2018-11-22T10:19:59.878Z,40.10
2018-11-22T10:20:59.843Z,40.50
2018-11-22T10:21:59.805Z,39.30
2018-11-22T10:22:59.771Z,40.00
2018-11-22T10:23:59.865Z,41.10
2018-11-22T10:24:59.702Z,40.70
2018-11-22T10:25:59.666Z,39.30
2018-11-22T10:26:59.631Z,40.60
2018-11-22T10:27:59.595Z,43.10
2018-11-22T10:28:59.561Z,40.10
2018-11-22T10:29:59.528Z,38.90
2018-11-22T10:30:59.489Z,41.00
2018-11-22T10:31:59.457Z,41.00
2018-11-22T10:32:59.436Z,41.20
2018-11-22T10:33:59.384Z,40.30
2018-11-22T10:34:59.397Z,39.40
2018-11-22T10:35:59.315Z,39.80
2018-11-22T10:36:59.279Z,40.20
2018-11-22T10:37:59.350Z,39.50
2018-11-22T10:38:59.247Z,40.20
2018-11-22T10:39:59.174Z,39.00
2018-11-22T10:40:59.139Z,39.40
2018-11-22T10:41:59.152Z,37.50
2018-11-22T10:42:59.068Z,39.80
2018-11-22T10:43:59.034Z,39.50
2018-11-22T10:44:59.001Z,40.70
2018-11-22T10:45:58.964Z,40.50
2018-11-22T10:46:58.931Z,40.30
2018-11-22T10:47:58.894Z,38.80
2018-11-22T10:48:58.866Z,37.50
2018-11-22T10:49:58.823Z,38.80
2018-11-22T10:50:58.787Z,39.40
2018-11-22T10:51:58.757Z,40.60
2018-11-22T10:52:58.717Z,40.60
2018-11-22T10:53:58.680Z,42.10
2018-11-22T10:54:58.647Z,39.60
2018-11-22T10:55:58.614Z,40.70
2018-11-22T10:56:58.576Z,39.30
2018-11-22T10:57:58.540Z,38.90
2018-11-22T10:58:58.506Z,39.50
2018-11-22T10:59:58.471Z,40.30
2018-11-22T11:00:58.436Z,39.20
2018-11-22T11:01:58.400Z,41.60
2018-11-22T11:02:58.365Z,42.30
2018-11-22T11:03:58.332Z,40.80
2018-11-22T11:04:58.300Z,39.50
2018-11-22T11:05:58.259Z,37.70
2018-11-22T11:06:58.224Z,42.00
2018-11-22T11:07:58.189Z,40.80
2018-11-22T11:08:58.154Z,36.70
2018-11-22T11:09:58.117Z,40.10
2018-11-22T11:10:58.082Z,42.00
2018-11-22T11:11:58.048Z,40.90
2018-11-22T11:12:58.016Z,40.20
2018-11-22T11:13:57.976Z,38.70
2018-11-22T11:14:57.944Z,39.90
2018-11-22T11:15:57.910Z,38.90
2018-11-22T11:16:57.871Z,40.60
2018-11-22T11:17:57.836Z,40.80
2018-11-22T11:18:57.800Z,39.60
2018-11-22T11:19:57.767Z,40.80
2018-11-22T11:20:57.730Z,36.90
2018-11-22T11:21:57.695Z,40.00
2018-11-22T11:22:57.659Z,41.10
2018-11-22T11:23:57.625Z,41.00
2018-11-22T11:24:57.590Z,41.60
2018-11-22T11:25:57.554Z,40.90
2018-11-22T11:26:57.518Z,40.00
2018-11-22T11:27:57.484Z,40.50
2018-11-22T11:28:57.458Z,40.20
2018-11-22T11:29:57.412Z,42.30
2018-11-22T11:30:57.378Z,41.80
2018-11-22T11:31:57.343Z,41.70
2018-11-22T11:32:57.308Z,39.70
2018-11-22T11:33:57.271Z,42.50
2018-11-22T11:34:57.236Z,42.40
2018-11-22T11:35:57.202Z,40.10
2018-11-22T11:36:57.167Z,40.30
2018-11-22T11:37:57.131Z,41.60
2018-11-22T11:38:57.095Z,38.60
2018-11-22T11:40:00.695Z,40.50
2018-11-22T11:40:57.026Z,39.70
2018-11-22T11:41:56.989Z,39.10
2018-11-22T11:42:56.954Z,40.40
2018-11-22T11:43:56.920Z,42.70
2018-11-22T11:44:56.885Z,39.90
2018-11-22T11:45:56.849Z,41.20
2018-11-22T11:46:56.813Z,38.90
2018-11-22T11:47:56.781Z,41.90
2018-11-22T11:48:56.744Z,40.00
2018-11-22T11:49:56.707Z,40.90
2018-11-22T11:50:56.676Z,39.40
2018-11-22T11:51:56.637Z,41.70
2018-11-22T11:52:56.602Z,41.10
2018-11-22T11:53:56.569Z,40.80
2018-11-22T11:54:56.533Z,40.30
2018-11-22T11:55:56.498Z,40.80
2018-11-22T11:56:56.463Z,40.80
2018-11-22T11:57:56.430Z,41.50
2018-11-22T11:58:56.391Z,41.40
2018-11-22T11:59:56.356Z,44.40
2018-11-22T12:00:56.322Z,41.20
2018-11-22T12:01:56.287Z,41.70
2018-11-22T12:02:56.252Z,41.20
2018-11-22T12:03:56.218Z,39.30
2018-11-22T12:04:56.181Z,40.50
2018-11-22T12:05:56.146Z,39.30
2018-11-22T12:06:56.111Z,39.60
2018-11-22T12:07:56.076Z,39.30
2018-11-22T12:08:56.041Z,40.70
2018-11-22T12:09:56.328Z,42.70
2018-11-22T12:10:55.975Z,38.00
2018-11-22T12:11:55.935Z,41.30
2018-11-22T12:12:55.901Z,42.00
2018-11-22T12:13:55.864Z,40.90
2018-11-22T12:14:55.832Z,41.80
2018-11-22T12:15:55.799Z,42.40
2018-11-22T12:16:55.760Z,37.40
2018-11-22T12:17:55.724Z,39.60
2018-11-22T12:18:55.689Z,38.60
2018-11-22T12:19:55.664Z,40.70
2018-11-22T12:20:55.620Z,40.30
2018-11-22T12:21:55.584Z,48.20
2018-11-22T12:22:55.548Z,44.80
2018-11-22T12:23:55.513Z,41.60
2018-11-22T12:24:55.478Z,41.50
2018-11-22T12:25:55.443Z,41.70
2018-11-22T12:26:55.409Z,42.20
2018-11-22T12:27:55.376Z,41.70
2018-11-22T12:28:55.339Z,41.10
2018-11-22T12:29:55.303Z,41.70
2018-11-22T12:30:55.268Z,42.60
2018-11-22T12:31:55.234Z,42.90
2018-11-22T12:32:55.198Z,41.30
2018-11-22T12:33:55.163Z,40.90
2018-11-22T12:34:55.132Z,40.30
2018-11-22T12:35:55.102Z,42.50
2018-11-22T12:36:55.057Z,39.90
2018-11-22T12:37:55.023Z,40.70
2018-11-22T12:38:54.987Z,42.50
2018-11-22T12:39:54.952Z,42.80
2018-11-22T12:40:54.915Z,40.70
2018-11-22T12:41:54.881Z,41.60
2018-11-22T12:42:54.848Z,43.60
2018-11-22T12:43:54.809Z,38.70
2018-11-22T12:44:54.775Z,41.80
2018-11-22T12:45:54.739Z,42.90
2018-11-22T12:46:54.705Z,43.10
2018-11-22T12:47:54.670Z,41.70
2018-11-22T12:48:54.635Z,39.40
2018-11-22T12:49:54.602Z,41.30
2018-11-22T12:50:54.563Z,37.00
2018-11-22T12:51:54.528Z,40.40